sensor_id;sensor_type;location;lat;lon;timestamp;temperature;humidity
18268;DHT22;9260;49.998;19.880;2023-02-15T00:08:53;2.20;99.90
18268;DHT22;9260;49.998;19.880;2023-02-15T00:18:59;2.30;99.90
18268;DHT22;9260;49.998;19.880;2023-02-15T00:29:04;2.30;99.90
18268;DHT22;9260;49.998;19.880;2023-02-15T00:39:09;2.30;99.90
18268;DHT22;9260;49.998;19.880;2023-02-15T00:49:13;2.30;99.90
18268;DHT22;9260;49.998;19.880;2023-02-15T00:59:18;2.30;99.90
18268;DHT22;9260;49.998;19.880;2023-02-15T01:09:22;2.30;99.90
18268;DHT22;9260;49.998;19.880;2023-02-15T01:19:27;2.20;99.90
18268;DHT22;9260;49.998;19.880;2023-02-15T01:29:31;2.20;99.90
18268;DHT22;9260;49.998;19.880;2023-02-15T01:39:37;2.20;99.90
18268;DHT22;9260;49.998;19.880;2023-02-15T01:49:42;2.30;99.90
18268;DHT22;9260;49.998;19.880;2023-02-15T01:59:50;2.30;99.90
18268;DHT22;9260;49.998;19.880;2023-02-15T02:09:55;2.40;99.90
18268;DHT22;9260;49.998;19.880;2023-02-15T02:20:17;2.40;99.90
18268;DHT22;9260;49.998;19.880;2023-02-15T02:31:00;2.40;99.90
18268;DHT22;9260;49.998;19.880;2023-02-15T02:41:27;2.30;99.90
18268;DHT22;9260;49.998;19.880;2023-02-15T02:51:36;2.30;99.90
18268;DHT22;9260;49.998;19.880;2023-02-15T03:01:44;2.20;99.90
18268;DHT22;9260;49.998;19.880;2023-02-15T03:11:50;2.20;99.90
18268;DHT22;9260;49.998;19.880;2023-02-15T03:22:03;2.20;99.90
18268;DHT22;9260;49.998;19.880;2023-02-15T03:32:12;2.10;99.90
18268;DHT22;9260;49.998;19.880;2023-02-15T03:42:24;2.10;99.90
18268;DHT22;9260;49.998;19.880;2023-02-15T03:52:31;2.00;99.90
18268;DHT22;9260;49.998;19.880;2023-02-15T04:02:42;1.90;99.90
18268;DHT22;9260;49.998;19.880;2023-02-15T04:12:51;1.90;99.90
18268;DHT22;9260;49.998;19.880;2023-02-15T04:22:56;1.90;99.90
18268;DHT22;9260;49.998;19.880;2023-02-15T04:33:17;1.90;99.90
18268;DHT22;9260;49.998;19.880;2023-02-15T04:43:22;1.90;99.90
18268;DHT22;9260;49.998;19.880;2023-02-15T04:53:26;2.00;99.90
18268;DHT22;9260;49.998;19.880;2023-02-15T05:03:31;1.90;99.90
18268;DHT22;9260;49.998;19.880;2023-02-15T05:13:36;1.90;99.90
18268;DHT22;9260;49.998;19.880;2023-02-15T05:23:41;1.90;99.90
18268;DHT22;9260;49.998;19.880;2023-02-15T05:33:45;1.80;99.90
18268;DHT22;9260;49.998;19.880;2023-02-15T05:43:50;1.80;99.90
18268;DHT22;9260;49.998;19.880;2023-02-15T05:53:54;1.80;99.90
18268;DHT22;9260;49.998;19.880;2023-02-15T06:03:59;1.90;99.90
18268;DHT22;9260;49.998;19.880;2023-02-15T06:14:03;1.90;99.90
18268;DHT22;9260;49.998;19.880;2023-02-15T06:24:09;1.90;99.90
18268;DHT22;9260;49.998;19.880;2023-02-15T06:34:13;1.90;99.90
18268;DHT22;9260;49.998;19.880;2023-02-15T06:44:18;1.80;99.90
18268;DHT22;9260;49.998;19.880;2023-02-15T06:54:22;2.00;99.90
18268;DHT22;9260;49.998;19.880;2023-02-15T07:04:27;2.10;99.90
18268;DHT22;9260;49.998;19.880;2023-02-15T07:14:32;2.40;99.90
18268;DHT22;9260;49.998;19.880;2023-02-15T07:24:37;2.60;99.90
18268;DHT22;9260;49.998;19.880;2023-02-15T07:34:40;3.30;99.90
18268;DHT22;9260;49.998;19.880;2023-02-15T07:44:46;4.10;99.90
18268;DHT22;9260;49.998;19.880;2023-02-15T07:54:50;6.60;99.90
18268;DHT22;9260;49.998;19.880;2023-02-15T08:04:55;11.00;99.90
18268;DHT22;9260;49.998;19.880;2023-02-15T08:14:59;13.70;99.90
18268;DHT22;9260;49.998;19.880;2023-02-15T08:25:04;14.00;99.90
18268;DHT22;9260;49.998;19.880;2023-02-15T08:35:08;16.90;99.90
18268;DHT22;9260;49.998;19.880;2023-02-15T08:45:13;20.00;99.90
18268;DHT22;9260;49.998;19.880;2023-02-15T08:55:17;21.00;99.90
18268;DHT22;9260;49.998;19.880;2023-02-15T09:05:22;24.10;99.90
18268;DHT22;9260;49.998;19.880;2023-02-15T09:15:26;26.40;99.90
18268;DHT22;9260;49.998;19.880;2023-02-15T09:25:31;27.40;99.90
18268;DHT22;9260;49.998;19.880;2023-02-15T09:35:34;28.10;99.90
18268;DHT22;9260;49.998;19.880;2023-02-15T09:46:08;30.50;99.90
18268;DHT22;9260;49.998;19.880;2023-02-15T09:56:28;32.00;99.90
18268;DHT22;9260;49.998;19.880;2023-02-15T10:06:43;33.10;99.90
18268;DHT22;9260;49.998;19.880;2023-02-15T10:16:56;34.40;99.90
18268;DHT22;9260;49.998;19.880;2023-02-15T10:27:11;34.90;99.90
18268;DHT22;9260;49.998;19.880;2023-02-15T10:48:04;37.80;99.90
18268;DHT22;9260;49.998;19.880;2023-02-15T10:58:24;37.50;99.90
18268;DHT22;9260;49.998;19.880;2023-02-15T11:08:44;37.50;99.90
18268;DHT22;9260;49.998;19.880;2023-02-15T11:18:53;38.60;99.90
18268;DHT22;9260;49.998;19.880;2023-02-15T11:29:05;39.00;99.90
18268;DHT22;9260;49.998;19.880;2023-02-15T11:39:17;38.70;99.90
18268;DHT22;9260;49.998;19.880;2023-02-15T11:49:38;40.30;99.90
18268;DHT22;9260;49.998;19.880;2023-02-15T11:59:47;40.00;99.90
18268;DHT22;9260;49.998;19.880;2023-02-15T12:10:02;39.30;99.90
18268;DHT22;9260;49.998;19.880;2023-02-15T12:20:24;40.10;99.90
18268;DHT22;9260;49.998;19.880;2023-02-15T12:30:35;40.80;99.90
18268;DHT22;9260;49.998;19.880;2023-02-15T12:40:40;39.00;99.90
18268;DHT22;9260;49.998;19.880;2023-02-15T12:50:47;38.40;99.90
18268;DHT22;9260;49.998;19.880;2023-02-15T13:01:09;39.10;99.90
18268;DHT22;9260;49.998;19.880;2023-02-15T13:11:22;37.20;99.90
18268;DHT22;9260;49.998;19.880;2023-02-15T13:21:35;37.50;99.90
18268;DHT22;9260;49.998;19.880;2023-02-15T13:31:43;37.00;99.90
18268;DHT22;9260;49.998;19.880;2023-02-15T13:41:53;36.90;99.90
18268;DHT22;9260;49.998;19.880;2023-02-15T13:52:11;36.00;99.90
18268;DHT22;9260;49.998;19.880;2023-02-15T14:02:45;34.90;99.90
18268;DHT22;9260;49.998;19.880;2023-02-15T14:13:39;33.30;99.90
18268;DHT22;9260;49.998;19.880;2023-02-15T14:24:04;31.80;99.90
18268;DHT22;9260;49.998;19.880;2023-02-15T14:34:21;30.30;99.90
18268;DHT22;9260;49.998;19.880;2023-02-15T14:44:31;28.40;99.90
18268;DHT22;9260;49.998;19.880;2023-02-15T14:55:11;25.30;99.90
18268;DHT22;9260;49.998;19.880;2023-02-15T15:05:48;21.30;99.90
18268;DHT22;9260;49.998;19.880;2023-02-15T15:15:54;16.60;99.90
18268;DHT22;9260;49.998;19.880;2023-02-15T15:26:28;13.00;99.90
18268;DHT22;9260;49.998;19.880;2023-02-15T15:37:18;10.70;99.90
18268;DHT22;9260;49.998;19.880;2023-02-15T15:47:57;9.10;99.90
18268;DHT22;9260;49.998;19.880;2023-02-15T15:58:14;8.00;99.90
18268;DHT22;9260;49.998;19.880;2023-02-15T16:08:26;7.00;99.90
18268;DHT22;9260;49.998;19.880;2023-02-15T16:18:33;6.00;99.90
18268;DHT22;9260;49.998;19.880;2023-02-15T16:28:47;5.20;99.90
18268;DHT22;9260;49.998;19.880;2023-02-15T16:39:16;4.40;99.90
18268;DHT22;9260;49.998;19.880;2023-02-15T16:49:23;3.70;99.90
18268;DHT22;9260;49.998;19.880;2023-02-15T16:59:34;3.10;99.90
18268;DHT22;9260;49.998;19.880;2023-02-15T17:09:49;2.60;99.90
18268;DHT22;9260;49.998;19.880;2023-02-15T17:19:55;2.00;99.90
18268;DHT22;9260;49.998;19.880;2023-02-15T17:30:00;1.50;99.90
18268;DHT22;9260;49.998;19.880;2023-02-15T17:40:17;1.30;99.90
18268;DHT22;9260;49.998;19.880;2023-02-15T17:50:25;1.10;99.90
18268;DHT22;9260;49.998;19.880;2023-02-15T18:00:35;0.70;99.90
18268;DHT22;9260;49.998;19.880;2023-02-15T18:10:59;0.50;99.90
18268;DHT22;9260;49.998;19.880;2023-02-15T18:21:23;0.10;99.90
18268;DHT22;9260;49.998;19.880;2023-02-15T18:31:27;-0.30;99.90
18268;DHT22;9260;49.998;19.880;2023-02-15T18:41:32;-0.60;99.90
18268;DHT22;9260;49.998;19.880;2023-02-15T18:51:36;-0.80;99.90
18268;DHT22;9260;49.998;19.880;2023-02-15T19:01:42;-1.10;99.90
18268;DHT22;9260;49.998;19.880;2023-02-15T19:11:49;-1.30;99.90
18268;DHT22;9260;49.998;19.880;2023-02-15T19:21:55;-1.30;99.90
18268;DHT22;9260;49.998;19.880;2023-02-15T19:31:59;-1.40;99.90
18268;DHT22;9260;49.998;19.880;2023-02-15T19:42:04;-1.50;99.90
18268;DHT22;9260;49.998;19.880;2023-02-15T19:52:14;-1.90;99.90
18268;DHT22;9260;49.998;19.880;2023-02-15T20:02:21;-2.10;99.90
18268;DHT22;9260;49.998;19.880;2023-02-15T20:12:26;-2.10;99.90
18268;DHT22;9260;49.998;19.880;2023-02-15T20:22:32;-2.40;99.90
18268;DHT22;9260;49.998;19.880;2023-02-15T20:32:35;-2.60;99.90
18268;DHT22;9260;49.998;19.880;2023-02-15T20:42:41;-2.70;99.90
18268;DHT22;9260;49.998;19.880;2023-02-15T20:52:46;-2.90;99.90
18268;DHT22;9260;49.998;19.880;2023-02-15T21:02:55;-2.80;99.90
18268;DHT22;9260;49.998;19.880;2023-02-15T21:13:00;-3.00;99.90
18268;DHT22;9260;49.998;19.880;2023-02-15T21:23:10;-3.20;99.90
18268;DHT22;9260;49.998;19.880;2023-02-15T21:33:17;-3.30;99.90
18268;DHT22;9260;49.998;19.880;2023-02-15T21:43:23;-3.30;99.90
18268;DHT22;9260;49.998;19.880;2023-02-15T21:53:45;-3.50;99.90
18268;DHT22;9260;49.998;19.880;2023-02-15T22:03:51;-3.40;99.90
18268;DHT22;9260;49.998;19.880;2023-02-15T22:13:55;-3.40;99.90
18268;DHT22;9260;49.998;19.880;2023-02-15T22:24:00;-3.40;99.90
18268;DHT22;9260;49.998;19.880;2023-02-15T22:34:04;-3.50;99.90
18268;DHT22;9260;49.998;19.880;2023-02-15T22:44:11;-3.50;99.90
18268;DHT22;9260;49.998;19.880;2023-02-15T22:54:15;-3.60;99.90
18268;DHT22;9260;49.998;19.880;2023-02-15T23:04:23;-3.60;99.90
18268;DHT22;9260;49.998;19.880;2023-02-15T23:14:33;-3.70;99.90
18268;DHT22;9260;49.998;19.880;2023-02-15T23:24:39;-3.70;99.90
18268;DHT22;9260;49.998;19.880;2023-02-15T23:34:43;-3.80;99.90
18268;DHT22;9260;49.998;19.880;2023-02-15T23:44:48;-4.00;99.90
18268;DHT22;9260;49.998;19.880;2023-02-15T23:54:52;-4.10;99.90
